aviador You're here:

KJAC Decoded Metar

JACKSON in WY, USA
Report Time2018-07-19 04:56:00
UTC Time2018-07-19 05:43:07
Flight Rules vfr VFR
Wind360° at 06 kt
W.Decomp.*RWY 01: 5.5 kt HW 2.3 kt LCW
Visibility9999 m
Phenomena:N/A
Clouds:N/A
Expected CloudBase > 2,800 ft AGL from Temp-Dew spread
CeilingNone
Temp14°C (ISA +12)
Dew Point07°C (63% RH)
AAT11.2°C
QNH1023 hPa
Density Alt7,621 ft
Elevation6,434 ft
Report Wrong Elevation
Raw Report
KJAC 190456Z AUTO 36006KT 10SM CLR 14/07 A3022 RMK AO2 SLP179
T01390072=

Extra information for KJAC:More info

Metar Taf Metar & Taf Last 4 Metars F.Rules Stats Wind Profile Meteogram Temp Stats Airport Information Weather charts Add Link Nearby VenuesMetar ALERT Operation Metar Decoded Social comments

AIRNAV info for KJAC